sensor_id;sensor_type;location;lat;lon;timestamp;temperature;humidity
64549;DHT22;49838;51.798;10.954;2023-03-31T00:00:45;17.50;40.20
64549;DHT22;49838;51.798;10.954;2023-03-31T00:03:12;17.50;40.20
64549;DHT22;49838;51.798;10.954;2023-03-31T00:05:47;17.50;40.10
64549;DHT22;49838;51.798;10.954;2023-03-31T00:08:19;17.50;40.00
64549;DHT22;49838;51.798;10.954;2023-03-31T00:10:47;17.50;40.00
64549;DHT22;49838;51.798;10.954;2023-03-31T00:13:14;17.50;39.90
64549;DHT22;49838;51.798;10.954;2023-03-31T00:15:42;17.40;39.90
64549;DHT22;49838;51.798;10.954;2023-03-31T00:18:09;17.40;39.90
64549;DHT22;49838;51.798;10.954;2023-03-31T00:20:37;17.40;39.90
64549;DHT22;49838;51.798;10.954;2023-03-31T00:23:04;17.30;39.80
64549;DHT22;49838;51.798;10.954;2023-03-31T00:25:39;17.20;39.80
64549;DHT22;49838;51.798;10.954;2023-03-31T00:28:06;17.20;39.80
64549;DHT22;49838;51.798;10.954;2023-03-31T00:30:34;17.10;39.80
64549;DHT22;49838;51.798;10.954;2023-03-31T00:33:01;17.10;39.80
64549;DHT22;49838;51.798;10.954;2023-03-31T00:35:29;17.10;39.70
64549;DHT22;49838;51.798;10.954;2023-03-31T00:37:56;17.00;39.70
64549;DHT22;49838;51.798;10.954;2023-03-31T00:40:24;17.00;39.70
64549;DHT22;49838;51.798;10.954;2023-03-31T00:42:53;16.90;39.70
64549;DHT22;49838;51.798;10.954;2023-03-31T00:45:24;16.90;39.70
64549;DHT22;49838;51.798;10.954;2023-03-31T00:47:56;16.80;39.70
64549;DHT22;49838;51.798;10.954;2023-03-31T00:50:30;16.80;39.70
64549;DHT22;49838;51.798;10.954;2023-03-31T00:53:01;16.70;39.70
64549;DHT22;49838;51.798;10.954;2023-03-31T00:55:33;16.70;39.70
64549;DHT22;49838;51.798;10.954;2023-03-31T00:58:05;16.60;39.60
64549;DHT22;49838;51.798;10.954;2023-03-31T01:00:34;16.60;39.60
64549;DHT22;49838;51.798;10.954;2023-03-31T01:03:02;16.60;39.50
64549;DHT22;49838;51.798;10.954;2023-03-31T01:05:35;16.60;39.40
64549;DHT22;49838;51.798;10.954;2023-03-31T01:08:08;16.60;39.40
64549;DHT22;49838;51.798;10.954;2023-03-31T01:10:38;16.60;39.30
64549;DHT22;49838;51.798;10.954;2023-03-31T01:13:09;16.60;39.20
64549;DHT22;49838;51.798;10.954;2023-03-31T01:15:39;16.60;39.10
64549;DHT22;49838;51.798;10.954;2023-03-31T01:18:08;16.50;39.00
64549;DHT22;49838;51.798;10.954;2023-03-31T01:20:40;16.50;39.00
64549;DHT22;49838;51.798;10.954;2023-03-31T01:23:30;16.50;39.00
64549;DHT22;49838;51.798;10.954;2023-03-31T01:29:35;16.50;38.90
64549;DHT22;49838;51.798;10.954;2023-03-31T01:32:38;16.40;38.80
64549;DHT22;49838;51.798;10.954;2023-03-31T01:38:39;16.30;39.00
64549;DHT22;49838;51.798;10.954;2023-03-31T01:41:37;16.30;38.90
64549;DHT22;49838;51.798;10.954;2023-03-31T01:44:16;16.30;38.80
64549;DHT22;49838;51.798;10.954;2023-03-31T01:46:51;16.20;38.70
64549;DHT22;49838;51.798;10.954;2023-03-31T01:49:23;16.20;38.70
64549;DHT22;49838;51.798;10.954;2023-03-31T01:52:02;16.20;38.80
64549;DHT22;49838;51.798;10.954;2023-03-31T01:54:33;16.10;38.80
64549;DHT22;49838;51.798;10.954;2023-03-31T01:57:10;16.10;38.80
64549;DHT22;49838;51.798;10.954;2023-03-31T01:59:42;16.00;38.80
64549;DHT22;49838;51.798;10.954;2023-03-31T02:02:14;16.10;39.00
64549;DHT22;49838;51.798;10.954;2023-03-31T02:04:46;16.10;39.10
64549;DHT22;49838;51.798;10.954;2023-03-31T02:07:17;16.10;39.10
64549;DHT22;49838;51.798;10.954;2023-03-31T02:09:49;16.10;39.10
64549;DHT22;49838;51.798;10.954;2023-03-31T02:12:24;16.10;39.20
64549;DHT22;49838;51.798;10.954;2023-03-31T02:14:53;16.00;39.00
64549;DHT22;49838;51.798;10.954;2023-03-31T02:17:25;16.10;39.00
64549;DHT22;49838;51.798;10.954;2023-03-31T02:19:56;16.10;39.00
64549;DHT22;49838;51.798;10.954;2023-03-31T02:22:26;16.10;38.90
64549;DHT22;49838;51.798;10.954;2023-03-31T02:24:57;16.10;38.90
64549;DHT22;49838;51.798;10.954;2023-03-31T02:27:30;16.10;39.00
64549;DHT22;49838;51.798;10.954;2023-03-31T02:29:59;16.10;39.00
64549;DHT22;49838;51.798;10.954;2023-03-31T02:32:29;16.10;39.60
64549;DHT22;49838;51.798;10.954;2023-03-31T02:35:00;16.10;38.80
64549;DHT22;49838;51.798;10.954;2023-03-31T02:37:28;16.10;38.90
64549;DHT22;49838;51.798;10.954;2023-03-31T02:39:56;16.10;38.90
64549;DHT22;49838;51.798;10.954;2023-03-31T02:42:27;16.10;38.90
64549;DHT22;49838;51.798;10.954;2023-03-31T02:45:01;16.10;39.00
64549;DHT22;49838;51.798;10.954;2023-03-31T02:47:29;16.10;39.00
64549;DHT22;49838;51.798;10.954;2023-03-31T02:49:58;16.10;38.90
64549;DHT22;49838;51.798;10.954;2023-03-31T02:55:23;16.10;38.90
64549;DHT22;49838;51.798;10.954;2023-03-31T03:01:12;16.20;39.10
64549;DHT22;49838;51.798;10.954;2023-03-31T03:03:56;16.20;39.20
64549;DHT22;49838;51.798;10.954;2023-03-31T03:06:35;16.20;39.20
64549;DHT22;49838;51.798;10.954;2023-03-31T03:09:12;16.10;39.10
64549;DHT22;49838;51.798;10.954;2023-03-31T03:11:51;16.10;39.10
64549;DHT22;49838;51.798;10.954;2023-03-31T03:14:30;16.10;39.20
64549;DHT22;49838;51.798;10.954;2023-03-31T03:17:04;16.10;39.20
64549;DHT22;49838;51.798;10.954;2023-03-31T03:19:35;16.10;39.30
64549;DHT22;49838;51.798;10.954;2023-03-31T03:22:02;16.10;39.10
64549;DHT22;49838;51.798;10.954;2023-03-31T03:24:29;16.10;39.10
64549;DHT22;49838;51.798;10.954;2023-03-31T03:26:59;16.10;39.20
64549;DHT22;49838;51.798;10.954;2023-03-31T03:29:27;16.10;39.20
64549;DHT22;49838;51.798;10.954;2023-03-31T03:31:54;16.10;39.30
64549;DHT22;49838;51.798;10.954;2023-03-31T03:34:22;16.10;39.40
64549;DHT22;49838;51.798;10.954;2023-03-31T03:36:50;16.00;39.30
64549;DHT22;49838;51.798;10.954;2023-03-31T03:39:17;16.10;39.30
64549;DHT22;49838;51.798;10.954;2023-03-31T03:41:45;16.10;39.30
64549;DHT22;49838;51.798;10.954;2023-03-31T03:44:12;16.10;39.20
64549;DHT22;49838;51.798;10.954;2023-03-31T03:46:40;16.10;39.40
64549;DHT22;49838;51.798;10.954;2023-03-31T03:49:07;16.10;39.50
64549;DHT22;49838;51.798;10.954;2023-03-31T03:51:36;16.00;39.40
64549;DHT22;49838;51.798;10.954;2023-03-31T03:54:03;16.00;39.40
64549;DHT22;49838;51.798;10.954;2023-03-31T03:56:31;16.00;39.40
64549;DHT22;49838;51.798;10.954;2023-03-31T03:58:58;16.00;39.40
64549;DHT22;49838;51.798;10.954;2023-03-31T04:01:25;16.00;39.40
64549;DHT22;49838;51.798;10.954;2023-03-31T04:03:52;16.10;39.50
64549;DHT22;49838;51.798;10.954;2023-03-31T04:06:20;16.10;39.40
64549;DHT22;49838;51.798;10.954;2023-03-31T04:08:48;16.10;39.30
64549;DHT22;49838;51.798;10.954;2023-03-31T04:11:16;16.20;39.40
64549;DHT22;49838;51.798;10.954;2023-03-31T04:13:44;16.20;39.30
64549;DHT22;49838;51.798;10.954;2023-03-31T04:16:12;16.20;39.30
64549;DHT22;49838;51.798;10.954;2023-03-31T04:18:41;16.20;39.30
64549;DHT22;49838;51.798;10.954;2023-03-31T04:21:09;16.20;39.30
64549;DHT22;49838;51.798;10.954;2023-03-31T04:23:40;16.20;39.20
64549;DHT22;49838;51.798;10.954;2023-03-31T04:26:13;16.20;39.40
64549;DHT22;49838;51.798;10.954;2023-03-31T04:28:41;16.10;39.50
64549;DHT22;49838;51.798;10.954;2023-03-31T04:31:11;16.10;39.70
64549;DHT22;49838;51.798;10.954;2023-03-31T04:33:41;16.10;40.50
64549;DHT22;49838;51.798;10.954;2023-03-31T04:36:10;16.00;40.20
64549;DHT22;49838;51.798;10.954;2023-03-31T04:38:42;16.00;40.30
64549;DHT22;49838;51.798;10.954;2023-03-31T04:41:13;16.10;40.40
64549;DHT22;49838;51.798;10.954;2023-03-31T04:43:40;16.10;40.60
64549;DHT22;49838;51.798;10.954;2023-03-31T04:46:08;16.00;40.50
64549;DHT22;49838;51.798;10.954;2023-03-31T04:48:35;16.10;41.00
64549;DHT22;49838;51.798;10.954;2023-03-31T04:51:03;16.10;41.00
64549;DHT22;49838;51.798;10.954;2023-03-31T04:53:31;16.10;41.30
64549;DHT22;49838;51.798;10.954;2023-03-31T04:55:58;16.10;41.50
64549;DHT22;49838;51.798;10.954;2023-03-31T04:58:27;16.10;41.40
64549;DHT22;49838;51.798;10.954;2023-03-31T05:00:54;16.10;41.40
64549;DHT22;49838;51.798;10.954;2023-03-31T05:03:21;16.10;41.40
64549;DHT22;49838;51.798;10.954;2023-03-31T05:05:48;16.10;41.40
64549;DHT22;49838;51.798;10.954;2023-03-31T05:08:16;16.20;41.60
64549;DHT22;49838;51.798;10.954;2023-03-31T05:10:43;16.20;41.50
64549;DHT22;49838;51.798;10.954;2023-03-31T05:13:10;16.30;41.50
64549;DHT22;49838;51.798;10.954;2023-03-31T05:15:39;16.30;41.40
64549;DHT22;49838;51.798;10.954;2023-03-31T05:18:09;16.40;42.00
64549;DHT22;49838;51.798;10.954;2023-03-31T05:20:37;16.50;41.90
64549;DHT22;49838;51.798;10.954;2023-03-31T05:23:05;16.60;42.00
64549;DHT22;49838;51.798;10.954;2023-03-31T05:25:32;16.70;42.20
64549;DHT22;49838;51.798;10.954;2023-03-31T05:27:59;16.80;42.40
64549;DHT22;49838;51.798;10.954;2023-03-31T05:30:27;16.80;42.20
64549;DHT22;49838;51.798;10.954;2023-03-31T05:32:56;16.90;42.00
64549;DHT22;49838;51.798;10.954;2023-03-31T05:35:24;16.90;42.10
64549;DHT22;49838;51.798;10.954;2023-03-31T05:37:51;16.90;42.00
64549;DHT22;49838;51.798;10.954;2023-03-31T05:40:18;16.90;42.10
64549;DHT22;49838;51.798;10.954;2023-03-31T05:42:46;16.90;42.10
64549;DHT22;49838;51.798;10.954;2023-03-31T05:45:13;16.90;42.10
64549;DHT22;49838;51.798;10.954;2023-03-31T05:47:40;16.90;42.00
64549;DHT22;49838;51.798;10.954;2023-03-31T05:50:09;16.90;42.00
64549;DHT22;49838;51.798;10.954;2023-03-31T05:52:36;16.90;41.90
64549;DHT22;49838;51.798;10.954;2023-03-31T05:55:04;16.90;41.80
64549;DHT22;49838;51.798;10.954;2023-03-31T05:57:32;16.90;41.60
64549;DHT22;49838;51.798;10.954;2023-03-31T05:59:59;17.00;41.50
64549;DHT22;49838;51.798;10.954;2023-03-31T06:02:27;17.00;41.40
64549;DHT22;49838;51.798;10.954;2023-03-31T06:04:54;17.10;41.40
64549;DHT22;49838;51.798;10.954;2023-03-31T06:07:23;17.10;41.30
64549;DHT22;49838;51.798;10.954;2023-03-31T06:09:51;17.20;41.40
64549;DHT22;49838;51.798;10.954;2023-03-31T06:12:18;17.20;41.30
64549;DHT22;49838;51.798;10.954;2023-03-31T06:14:46;17.20;41.20
64549;DHT22;49838;51.798;10.954;2023-03-31T06:17:13;17.30;41.20
64549;DHT22;49838;51.798;10.954;2023-03-31T06:19:40;17.30;41.10
64549;DHT22;49838;51.798;10.954;2023-03-31T06:22:07;17.30;41.00
64549;DHT22;49838;51.798;10.954;2023-03-31T06:24:36;17.40;41.10
64549;DHT22;49838;51.798;10.954;2023-03-31T06:27:04;17.40;41.10
64549;DHT22;49838;51.798;10.954;2023-03-31T06:29:32;17.50;41.10
64549;DHT22;49838;51.798;10.954;2023-03-31T06:31:59;17.50;41.00
64549;DHT22;49838;51.798;10.954;2023-03-31T06:34:27;17.60;41.10
64549;DHT22;49838;51.798;10.954;2023-03-31T06:36:54;17.60;40.90
64549;DHT22;49838;51.798;10.954;2023-03-31T06:39:21;17.60;40.90
64549;DHT22;49838;51.798;10.954;2023-03-31T06:41:50;17.80;41.00
64549;DHT22;49838;51.798;10.954;2023-03-31T06:44:17;17.80;40.90
64549;DHT22;49838;51.798;10.954;2023-03-31T06:46:47;17.90;40.90
64549;DHT22;49838;51.798;10.954;2023-03-31T06:49:15;17.90;40.90
64549;DHT22;49838;51.798;10.954;2023-03-31T06:51:42;18.00;40.90
64549;DHT22;49838;51.798;10.954;2023-03-31T06:54:09;18.00;40.90
64549;DHT22;49838;51.798;10.954;2023-03-31T06:56:37;18.10;40.90
64549;DHT22;49838;51.798;10.954;2023-03-31T06:59:05;18.10;40.90
64549;DHT22;49838;51.798;10.954;2023-03-31T07:01:32;18.10;40.90
64549;DHT22;49838;51.798;10.954;2023-03-31T07:04:02;18.20;41.00
64549;DHT22;49838;51.798;10.954;2023-03-31T07:06:29;18.30;40.90
64549;DHT22;49838;51.798;10.954;2023-03-31T07:08:56;18.40;41.00
64549;DHT22;49838;51.798;10.954;2023-03-31T07:11:24;18.40;41.00
64549;DHT22;49838;51.798;10.954;2023-03-31T07:13:51;18.50;40.90
64549;DHT22;49838;51.798;10.954;2023-03-31T07:16:20;18.60;40.90
64549;DHT22;49838;51.798;10.954;2023-03-31T07:18:48;18.70;40.90
64549;DHT22;49838;51.798;10.954;2023-03-31T07:21:18;18.60;40.90
64549;DHT22;49838;51.798;10.954;2023-03-31T07:23:46;18.70;41.10
64549;DHT22;49838;51.798;10.954;2023-03-31T07:26:13;18.60;41.00
64549;DHT22;49838;51.798;10.954;2023-03-31T07:28:40;18.70;41.20
64549;DHT22;49838;51.798;10.954;2023-03-31T07:31:11;18.60;41.10
64549;DHT22;49838;51.798;10.954;2023-03-31T07:33:40;18.70;41.30
64549;DHT22;49838;51.798;10.954;2023-03-31T07:36:08;18.70;41.10
64549;DHT22;49838;51.798;10.954;2023-03-31T07:38:36;18.80;41.30
64549;DHT22;49838;51.798;10.954;2023-03-31T07:41:03;18.70;41.40
64549;DHT22;49838;51.798;10.954;2023-03-31T07:43:30;18.60;41.30
64549;DHT22;49838;51.798;10.954;2023-03-31T07:45:58;18.60;41.90
64549;DHT22;49838;51.798;10.954;2023-03-31T07:48:26;18.60;41.60
64549;DHT22;49838;51.798;10.954;2023-03-31T07:50:56;18.60;41.40
64549;DHT22;49838;51.798;10.954;2023-03-31T07:53:24;18.60;41.50
64549;DHT22;49838;51.798;10.954;2023-03-31T07:55:51;18.60;41.40
64549;DHT22;49838;51.798;10.954;2023-03-31T07:58:18;18.60;41.60
64549;DHT22;49838;51.798;10.954;2023-03-31T08:00:45;18.60;41.60
64549;DHT22;49838;51.798;10.954;2023-03-31T08:03:13;18.70;41.60
64549;DHT22;49838;51.798;10.954;2023-03-31T08:05:40;18.70;41.60
64549;DHT22;49838;51.798;10.954;2023-03-31T08:08:09;18.80;41.60
64549;DHT22;49838;51.798;10.954;2023-03-31T08:10:36;18.90;41.60
64549;DHT22;49838;51.798;10.954;2023-03-31T08:13:03;19.00;41.60
64549;DHT22;49838;51.798;10.954;2023-03-31T08:15:30;19.00;41.50
64549;DHT22;49838;51.798;10.954;2023-03-31T08:17:58;19.10;41.50
64549;DHT22;49838;51.798;10.954;2023-03-31T08:20:25;19.10;41.40
64549;DHT22;49838;51.798;10.954;2023-03-31T08:22:53;19.10;41.50
64549;DHT22;49838;51.798;10.954;2023-03-31T08:25:21;19.20;41.50
64549;DHT22;49838;51.798;10.954;2023-03-31T08:27:49;19.20;41.50
64549;DHT22;49838;51.798;10.954;2023-03-31T08:30:17;19.30;41.50
64549;DHT22;49838;51.798;10.954;2023-03-31T08:32:45;19.20;41.40
64549;DHT22;49838;51.798;10.954;2023-03-31T08:35:12;19.30;41.50
64549;DHT22;49838;51.798;10.954;2023-03-31T08:37:40;19.30;41.40
64549;DHT22;49838;51.798;10.954;2023-03-31T08:40:09;19.30;41.40
64549;DHT22;49838;51.798;10.954;2023-03-31T08:42:45;19.30;41.40
64549;DHT22;49838;51.798;10.954;2023-03-31T08:45:16;19.40;41.40
64549;DHT22;49838;51.798;10.954;2023-03-31T08:47:49;19.30;41.30
64549;DHT22;49838;51.798;10.954;2023-03-31T08:50:20;19.30;41.30
64549;DHT22;49838;51.798;10.954;2023-03-31T08:52:51;19.20;41.30
64549;DHT22;49838;51.798;10.954;2023-03-31T08:55:24;19.20;41.30
64549;DHT22;49838;51.798;10.954;2023-03-31T08:57:59;19.20;41.20
64549;DHT22;49838;51.798;10.954;2023-03-31T09:00:34;19.20;41.20
64549;DHT22;49838;51.798;10.954;2023-03-31T09:03:10;19.20;41.10
64549;DHT22;49838;51.798;10.954;2023-03-31T09:05:45;19.20;41.20
64549;DHT22;49838;51.798;10.954;2023-03-31T09:08:24;19.20;41.10
64549;DHT22;49838;51.798;10.954;2023-03-31T09:11:02;19.30;41.20
64549;DHT22;49838;51.798;10.954;2023-03-31T09:13:41;19.30;41.20
64549;DHT22;49838;51.798;10.954;2023-03-31T09:16:20;19.30;41.10
64549;DHT22;49838;51.798;10.954;2023-03-31T09:18:52;19.40;41.10
64549;DHT22;49838;51.798;10.954;2023-03-31T09:21:26;19.30;41.00
64549;DHT22;49838;51.798;10.954;2023-03-31T09:23:58;19.40;41.10
64549;DHT22;49838;51.798;10.954;2023-03-31T09:26:33;19.40;41.00
64549;DHT22;49838;51.798;10.954;2023-03-31T09:29:06;19.40;41.10
64549;DHT22;49838;51.798;10.954;2023-03-31T09:31:41;19.40;41.00
64549;DHT22;49838;51.798;10.954;2023-03-31T09:34:11;19.40;41.10
64549;DHT22;49838;51.798;10.954;2023-03-31T09:36:41;19.40;41.00
64549;DHT22;49838;51.798;10.954;2023-03-31T09:39:10;19.50;41.00
64549;DHT22;49838;51.798;10.954;2023-03-31T09:41:40;19.40;41.00
64549;DHT22;49838;51.798;10.954;2023-03-31T09:44:19;19.40;41.00
64549;DHT22;49838;51.798;10.954;2023-03-31T09:46:50;19.40;41.00
64549;DHT22;49838;51.798;10.954;2023-03-31T09:49:19;19.40;41.00
64549;DHT22;49838;51.798;10.954;2023-03-31T09:51:51;19.40;41.00
64549;DHT22;49838;51.798;10.954;2023-03-31T09:54:30;19.40;40.90
64549;DHT22;49838;51.798;10.954;2023-03-31T09:57:11;19.30;40.80
64549;DHT22;49838;51.798;10.954;2023-03-31T09:59:42;19.30;40.80
64549;DHT22;49838;51.798;10.954;2023-03-31T10:02:32;19.20;40.80
64549;DHT22;49838;51.798;10.954;2023-03-31T10:05:02;19.20;40.80
64549;DHT22;49838;51.798;10.954;2023-03-31T10:07:31;19.10;40.80
64549;DHT22;49838;51.798;10.954;2023-03-31T10:09:59;19.10;40.80
64549;DHT22;49838;51.798;10.954;2023-03-31T10:12:28;19.00;40.80
64549;DHT22;49838;51.798;10.954;2023-03-31T10:15:13;18.90;40.80
64549;DHT22;49838;51.798;10.954;2023-03-31T10:17:45;18.80;40.80
64549;DHT22;49838;51.798;10.954;2023-03-31T10:20:18;18.70;40.80
64549;DHT22;49838;51.798;10.954;2023-03-31T10:22:47;18.70;40.90
64549;DHT22;49838;51.798;10.954;2023-03-31T10:25:17;18.60;40.80
64549;DHT22;49838;51.798;10.954;2023-03-31T10:27:48;18.50;40.90
64549;DHT22;49838;51.798;10.954;2023-03-31T10:30:22;18.40;40.90
64549;DHT22;49838;51.798;10.954;2023-03-31T10:32:50;18.40;41.00
64549;DHT22;49838;51.798;10.954;2023-03-31T10:35:21;18.30;41.00
64549;DHT22;49838;51.798;10.954;2023-03-31T10:37:53;18.20;41.00
64549;DHT22;49838;51.798;10.954;2023-03-31T10:40:23;18.20;41.10
64549;DHT22;49838;51.798;10.954;2023-03-31T10:42:59;18.10;40.90
64549;DHT22;49838;51.798;10.954;2023-03-31T10:45:30;18.10;41.00
64549;DHT22;49838;51.798;10.954;2023-03-31T10:48:04;18.00;40.90
64549;DHT22;49838;51.798;10.954;2023-03-31T10:50:46;18.00;41.00
64549;DHT22;49838;51.798;10.954;2023-03-31T10:53:14;18.00;40.90
64549;DHT22;49838;51.798;10.954;2023-03-31T10:55:45;18.00;40.90
64549;DHT22;49838;51.798;10.954;2023-03-31T10:58:35;17.90;40.90
64549;DHT22;49838;51.798;10.954;2023-03-31T11:01:20;17.90;40.90
64549;DHT22;49838;51.798;10.954;2023-03-31T11:04:08;18.00;41.00
64549;DHT22;49838;51.798;10.954;2023-03-31T11:06:51;18.00;40.90
64549;DHT22;49838;51.798;10.954;2023-03-31T11:09:32;18.10;40.90
64549;DHT22;49838;51.798;10.954;2023-03-31T11:12:07;18.10;40.80
64549;DHT22;49838;51.798;10.954;2023-03-31T11:14:45;18.20;40.80
64549;DHT22;49838;51.798;10.954;2023-03-31T11:17:25;18.20;40.80
64549;DHT22;49838;51.798;10.954;2023-03-31T11:20:04;18.30;40.90
64549;DHT22;49838;51.798;10.954;2023-03-31T11:22:43;18.40;40.90
64549;DHT22;49838;51.798;10.954;2023-03-31T11:25:21;18.40;40.90
64549;DHT22;49838;51.798;10.954;2023-03-31T11:28:01;18.40;40.90
64549;DHT22;49838;51.798;10.954;2023-03-31T11:30:45;18.50;40.90
64549;DHT22;49838;51.798;10.954;2023-03-31T11:33:36;18.50;40.90
64549;DHT22;49838;51.798;10.954;2023-03-31T11:36:17;18.50;40.90
64549;DHT22;49838;51.798;10.954;2023-03-31T11:38:58;18.60;41.00
64549;DHT22;49838;51.798;10.954;2023-03-31T11:41:42;18.60;40.90
64549;DHT22;49838;51.798;10.954;2023-03-31T11:44:13;18.60;40.90
64549;DHT22;49838;51.798;10.954;2023-03-31T11:46:43;18.70;40.90
64549;DHT22;49838;51.798;10.954;2023-03-31T11:49:17;18.80;41.00
64549;DHT22;49838;51.798;10.954;2023-03-31T11:51:47;18.80;40.90
64549;DHT22;49838;51.798;10.954;2023-03-31T11:54:23;18.90;40.90
64549;DHT22;49838;51.798;10.954;2023-03-31T11:56:55;18.90;40.90
64549;DHT22;49838;51.798;10.954;2023-03-31T11:59:22;18.90;41.30
64549;DHT22;49838;51.798;10.954;2023-03-31T12:01:56;19.00;40.90
64549;DHT22;49838;51.798;10.954;2023-03-31T12:04:33;19.00;40.90
64549;DHT22;49838;51.798;10.954;2023-03-31T12:07:15;19.10;41.00
64549;DHT22;49838;51.798;10.954;2023-03-31T12:09:51;19.20;41.00
64549;DHT22;49838;51.798;10.954;2023-03-31T12:12:28;19.30;41.00
64549;DHT22;49838;51.798;10.954;2023-03-31T12:14:59;19.50;41.10
64549;DHT22;49838;51.798;10.954;2023-03-31T12:17:34;19.70;41.20
64549;DHT22;49838;51.798;10.954;2023-03-31T12:20:13;19.90;41.20
64549;DHT22;49838;51.798;10.954;2023-03-31T12:22:47;20.10;41.10
64549;DHT22;49838;51.798;10.954;2023-03-31T12:25:18;20.30;41.20
64549;DHT22;49838;51.798;10.954;2023-03-31T12:27:50;20.40;41.10
64549;DHT22;49838;51.798;10.954;2023-03-31T12:30:21;20.60;41.10
64549;DHT22;49838;51.798;10.954;2023-03-31T12:32:55;20.70;41.20
64549;DHT22;49838;51.798;10.954;2023-03-31T12:35:30;20.80;41.20
64549;DHT22;49838;51.798;10.954;2023-03-31T12:38:17;20.90;41.20
64549;DHT22;49838;51.798;10.954;2023-03-31T12:40:55;21.00;41.20
64549;DHT22;49838;51.798;10.954;2023-03-31T12:43:36;21.20;41.40
64549;DHT22;49838;51.798;10.954;2023-03-31T12:46:21;21.30;41.30
64549;DHT22;49838;51.798;10.954;2023-03-31T12:49:00;21.30;41.40
64549;DHT22;49838;51.798;10.954;2023-03-31T12:51:41;21.40;41.40
64549;DHT22;49838;51.798;10.954;2023-03-31T12:54:25;21.50;42.00
64549;DHT22;49838;51.798;10.954;2023-03-31T12:57:03;21.60;41.30
64549;DHT22;49838;51.798;10.954;2023-03-31T12:59:40;21.70;41.30
64549;DHT22;49838;51.798;10.954;2023-03-31T13:02:21;21.80;41.40
64549;DHT22;49838;51.798;10.954;2023-03-31T13:04:50;21.90;41.40
64549;DHT22;49838;51.798;10.954;2023-03-31T13:10:24;22.10;41.30
64549;DHT22;49838;51.798;10.954;2023-03-31T13:12:55;22.10;41.10
64549;DHT22;49838;51.798;10.954;2023-03-31T13:15:26;22.10;41.20
64549;DHT22;49838;51.798;10.954;2023-03-31T13:17:56;22.20;41.20
64549;DHT22;49838;51.798;10.954;2023-03-31T13:20:29;22.20;41.10
64549;DHT22;49838;51.798;10.954;2023-03-31T13:23:15;22.30;41.20
64549;DHT22;49838;51.798;10.954;2023-03-31T13:25:48;22.50;41.40
64549;DHT22;49838;51.798;10.954;2023-03-31T13:28:23;22.80;41.30
64549;DHT22;49838;51.798;10.954;2023-03-31T13:30:54;23.00;41.30
64549;DHT22;49838;51.798;10.954;2023-03-31T13:33:26;23.00;41.10
64549;DHT22;49838;51.798;10.954;2023-03-31T13:36:06;23.00;41.00
64549;DHT22;49838;51.798;10.954;2023-03-31T13:38:51;22.90;40.90
64549;DHT22;49838;51.798;10.954;2023-03-31T13:41:29;23.00;40.90
64549;DHT22;49838;51.798;10.954;2023-03-31T13:44:13;23.10;40.90
64549;DHT22;49838;51.798;10.954;2023-03-31T13:47:17;23.20;40.60
64549;DHT22;49838;51.798;10.954;2023-03-31T13:50:04;23.20;40.70
64549;DHT22;49838;51.798;10.954;2023-03-31T13:52:44;23.10;40.80
64549;DHT22;49838;51.798;10.954;2023-03-31T13:58:39;22.90;40.80
64549;DHT22;49838;51.798;10.954;2023-03-31T14:04:26;22.40;40.90
64549;DHT22;49838;51.798;10.954;2023-03-31T14:07:12;22.10;41.00
64549;DHT22;49838;51.798;10.954;2023-03-31T14:09:46;21.80;41.20
64549;DHT22;49838;51.798;10.954;2023-03-31T14:12:20;21.70;41.30
64549;DHT22;49838;51.798;10.954;2023-03-31T14:14:52;21.50;41.30
64549;DHT22;49838;51.798;10.954;2023-03-31T14:17:20;21.30;41.20
64549;DHT22;49838;51.798;10.954;2023-03-31T14:19:52;21.10;41.10
64549;DHT22;49838;51.798;10.954;2023-03-31T14:22:41;20.90;41.00
64549;DHT22;49838;51.798;10.954;2023-03-31T14:25:17;20.50;41.00
64549;DHT22;49838;51.798;10.954;2023-03-31T14:27:55;20.10;41.00
64549;DHT22;49838;51.798;10.954;2023-03-31T14:30:37;19.80;41.20
64549;DHT22;49838;51.798;10.954;2023-03-31T14:33:19;19.50;41.30
64549;DHT22;49838;51.798;10.954;2023-03-31T14:36:00;19.20;41.30
64549;DHT22;49838;51.798;10.954;2023-03-31T14:38:35;19.10;41.50
64549;DHT22;49838;51.798;10.954;2023-03-31T14:41:02;18.90;41.40
64549;DHT22;49838;51.798;10.954;2023-03-31T14:43:30;18.80;41.30
64549;DHT22;49838;51.798;10.954;2023-03-31T14:46:01;18.70;41.30
64549;DHT22;49838;51.798;10.954;2023-03-31T14:48:31;18.60;41.10
64549;DHT22;49838;51.798;10.954;2023-03-31T14:51:01;18.40;41.40
64549;DHT22;49838;51.798;10.954;2023-03-31T14:53:29;18.20;41.30
64549;DHT22;49838;51.798;10.954;2023-03-31T14:55:58;18.10;41.20
64549;DHT22;49838;51.798;10.954;2023-03-31T14:58:29;17.90;41.20
64549;DHT22;49838;51.798;10.954;2023-03-31T15:01:00;17.80;41.20
64549;DHT22;49838;51.798;10.954;2023-03-31T15:03:33;17.70;41.30
64549;DHT22;49838;51.798;10.954;2023-03-31T15:06:06;17.60;41.20
64549;DHT22;49838;51.798;10.954;2023-03-31T15:08:36;17.50;41.30
64549;DHT22;49838;51.798;10.954;2023-03-31T15:11:04;17.40;41.20
64549;DHT22;49838;51.798;10.954;2023-03-31T15:13:37;17.40;41.20
64549;DHT22;49838;51.798;10.954;2023-03-31T15:16:26;17.40;41.10
64549;DHT22;49838;51.798;10.954;2023-03-31T15:18:58;17.40;41.20
64549;DHT22;49838;51.798;10.954;2023-03-31T15:21:27;17.30;41.20
64549;DHT22;49838;51.798;10.954;2023-03-31T15:23:57;17.20;41.10
64549;DHT22;49838;51.798;10.954;2023-03-31T15:26:27;17.10;41.10
64549;DHT22;49838;51.798;10.954;2023-03-31T15:29:00;17.10;41.10
64549;DHT22;49838;51.798;10.954;2023-03-31T15:31:34;17.20;41.20
64549;DHT22;49838;51.798;10.954;2023-03-31T15:34:11;17.10;41.10
64549;DHT22;49838;51.798;10.954;2023-03-31T15:36:40;17.10;41.10
64549;DHT22;49838;51.798;10.954;2023-03-31T15:39:09;17.00;41.10
64549;DHT22;49838;51.798;10.954;2023-03-31T15:41:37;17.00;41.20
64549;DHT22;49838;51.798;10.954;2023-03-31T15:44:05;17.00;41.20
64549;DHT22;49838;51.798;10.954;2023-03-31T15:46:58;17.00;41.20
64549;DHT22;49838;51.798;10.954;2023-03-31T15:49:27;16.90;41.20
64549;DHT22;49838;51.798;10.954;2023-03-31T15:51:55;16.90;41.30
64549;DHT22;49838;51.798;10.954;2023-03-31T15:54:28;16.90;41.40
64549;DHT22;49838;51.798;10.954;2023-03-31T15:56:59;16.80;41.60
64549;DHT22;49838;51.798;10.954;2023-03-31T15:59:27;16.80;41.60
64549;DHT22;49838;51.798;10.954;2023-03-31T16:01:56;16.70;41.70
64549;DHT22;49838;51.798;10.954;2023-03-31T16:04:29;16.70;42.00
64549;DHT22;49838;51.798;10.954;2023-03-31T16:06:58;16.70;42.10